CES7866 LPLA-KBOS
Flight info
| Callsign | CES7866 |
|---|---|
| Flight time | N/A |
| Altitude | 35000 |
| Route | LM DEVAN NOTMA 38N030W 39N040W 39N050W 40N060W DOVEY FERNZ OOSHN5 |
| Aircraft | B738/L-SDE3FGHIRWY/LB1 |
Departure
| Time | 2026-04-22 06:32 |
|---|---|
| Airport | Lajes Airport (LPLA) |
Arrival
| Time | N/A |
|---|---|
| Airport | Boston Logan International Airport (KBOS) |
| Time | Latitude | Longitude | Altitude | Speed | Heading |
|---|---|---|---|---|---|
| 2026-04-22 06:22 | 38.31976 | -26.42822 | 23132 ft | 471 kts | 133° |
| 2026-04-22 06:22 | 38.29723 | -26.39808 | 23457 ft | 473 kts | 133° |
| 2026-04-22 06:22 | 38.27451 | -26.36792 | 23769 ft | 475 kts | 134° |
| 2026-04-22 06:23 | 38.25036 | -26.33862 | 24069 ft | 477 kts | 140° |
| 2026-04-22 06:23 | 38.22323 | -26.31490 | 24334 ft | 480 kts | 153° |
| 2026-04-22 06:23 | 38.19223 | -26.29895 | 24641 ft | 481 kts | 161° |
| 2026-04-22 06:23 | 38.15987 | -26.28684 | 24920 ft | 483 kts | 167° |
| 2026-04-22 06:24 | 38.09315 | -26.28472 | 25441 ft | 486 kts | 189° |
| 2026-04-22 06:24 | 38.06010 | -26.29316 | 25757 ft | 487 kts | 194° |
| 2026-04-22 06:24 | 38.02762 | -26.30710 | 26043 ft | 488 kts | 205° |
| 2026-04-22 06:25 | 37.99898 | -26.32975 | 26366 ft | 487 kts | 218° |
| 2026-04-22 06:25 | 37.97327 | -26.35711 | 26732 ft | 486 kts | 222° |
| 2026-04-22 06:25 | 37.94947 | -26.38777 | 27031 ft | 487 kts | 231° |
| 2026-04-22 06:25 | 37.93150 | -26.42355 | 27324 ft | 487 kts | 245° |
| 2026-04-22 06:26 | 37.91926 | -26.46349 | 27697 ft | 485 kts | 251° |
| 2026-04-22 06:26 | 37.90961 | -26.50388 | 28010 ft | 485 kts | 257° |
| 2026-04-22 06:26 | 37.90521 | -26.54619 | 28294 ft | 485 kts | 270° |
| 2026-04-22 06:26 | 37.90874 | -26.58854 | 28636 ft | 483 kts | 281° |
| 2026-04-22 06:27 | 37.91566 | -26.62981 | 28974 ft | 483 kts | 284° |
| 2026-04-22 06:27 | 37.92627 | -26.67022 | 29256 ft | 483 kts | 294° |
| 2026-04-22 06:27 | 37.94336 | -26.70618 | 29541 ft | 482 kts | 308° |
| 2026-04-22 06:27 | 37.96529 | -26.73823 | 29898 ft | 480 kts | 313° |
| 2026-04-22 06:28 | 37.98909 | -26.76765 | 30180 ft | 480 kts | 319° |
| 2026-04-22 06:28 | 38.01656 | -26.79149 | 30436 ft | 480 kts | 333° |
| 2026-04-22 06:28 | 38.04740 | -26.80694 | 30761 ft | 479 kts | 342° |
| 2026-04-22 06:28 | 38.07964 | -26.81862 | 31068 ft | 478 kts | 347° |
| 2026-04-22 06:29 | 38.11202 | -26.82502 | 31313 ft | 478 kts | 357° |
| 2026-04-22 06:29 | 38.14553 | -26.82202 | 31580 ft | 478 kts | 11° |
| 2026-04-22 06:29 | 38.17741 | -26.81187 | 31905 ft | 476 kts | 15° |
| 2026-04-22 06:29 | 38.20906 | -26.80072 | 32167 ft | 476 kts | 17° |
| 2026-04-22 06:30 | 38.23990 | -26.78497 | 32401 ft | 476 kts | 28° |
| 2026-04-22 06:30 | 38.26778 | -26.76252 | 32696 ft | 475 kts | 33° |
| 2026-04-22 06:30 | 38.29615 | -26.74169 | 32970 ft | 475 kts | 24° |
| 2026-04-22 06:30 | 38.32774 | -26.72846 | 33214 ft | 475 kts | 11° |
| 2026-04-22 06:31 | 38.36041 | -26.72559 | 33474 ft | 474 kts | 355° |
| 2026-04-22 06:31 | 38.39246 | -26.73389 | 33731 ft | 473 kts | 340° |
| 2026-04-22 06:31 | 38.42217 | -26.75204 | 34001 ft | 472 kts | 328° |
| 2026-04-22 06:31 | 38.44902 | -26.77568 | 34290 ft | 471 kts | 323° |
| 2026-04-22 06:32 | 38.47473 | -26.80114 | 34556 ft | 471 kts | 321° |
| 2026-04-22 06:32 | 38.50012 | -26.82754 | 34818 ft | 471 kts | 319° |
| 2026-04-22 06:32 | 38.52449 | -26.85552 | 34996 ft | 472 kts | 315° |
| 2026-04-22 06:33 | 38.56843 | -26.91672 | 35000 ft | 469 kts | 310° |
| 2026-04-22 06:33 | 38.60920 | -26.98142 | 35001 ft | 464 kts | 307° |
| 2026-04-22 06:34 | 38.64799 | -27.04696 | 35001 ft | 465 kts | 306° |
| 2026-04-22 06:34 | 38.68628 | -27.11378 | 35001 ft | 466 kts | 306° |
| 2026-04-22 06:35 | 38.72409 | -27.18124 | 35001 ft | 466 kts | 305° |
| 2026-04-22 06:35 | 38.76154 | -27.24893 | 35000 ft | 465 kts | 305° |
| 2026-04-22 06:36 | 38.79861 | -27.31655 | 35000 ft | 465 kts | 304° |
| 2026-04-22 06:36 | 38.82829 | -27.39012 | 34999 ft | 465 kts | 288° |
| 2026-04-22 06:36 | 38.83539 | -27.43032 | 35001 ft | 465 kts | 277° |
| 2026-04-22 06:37 | 38.83688 | -27.47159 | 35005 ft | 466 kts | 269° |
| 2026-04-22 06:37 | 38.83356 | -27.55429 | 35001 ft | 466 kts | 268° |
| 2026-04-22 06:38 | 38.83053 | -27.63701 | 35001 ft | 466 kts | 268° |
| 2026-04-22 06:38 | 38.82724 | -27.71957 | 35001 ft | 465 kts | 266° |
| 2026-04-22 06:39 | 38.82379 | -27.80203 | 35001 ft | 466 kts | 266° |
| 2026-04-22 06:39 | 38.82022 | -27.88470 | 35001 ft | 466 kts | 266° |
| 2026-04-22 06:40 | 38.81655 | -27.96732 | 35001 ft | 466 kts | 266° |
| 2026-04-22 06:40 | 38.80816 | -28.04905 | 34998 ft | 465 kts | 256° |
| 2026-04-22 06:41 | 38.78380 | -28.12549 | 35005 ft | 465 kts | 242° |
| 2026-04-22 06:41 | 38.75389 | -28.19848 | 35001 ft | 466 kts | 243° |
| 2026-04-22 06:42 | 38.72404 | -28.27253 | 35001 ft | 466 kts | 243° |
| 2026-04-22 06:42 | 38.69438 | -28.34547 | 35001 ft | 465 kts | 243° |
| 2026-04-22 06:43 | 38.66433 | -28.41908 | 35001 ft | 466 kts | 243° |
| 2026-04-22 06:43 | 38.63435 | -28.49224 | 35001 ft | 466 kts | 243° |
| 2026-04-22 06:44 | 38.60438 | -28.56518 | 35001 ft | 466 kts | 243° |
| 2026-04-22 06:44 | 38.57439 | -28.63795 | 35001 ft | 466 kts | 243° |
| 2026-04-22 06:45 | 38.54428 | -28.71084 | 35001 ft | 466 kts | 242° |
| 2026-04-22 06:45 | 38.51411 | -28.78369 | 35001 ft | 466 kts | 242° |
| 2026-04-22 06:46 | 38.48381 | -28.85665 | 35001 ft | 466 kts | 242° |
| 2026-04-22 06:46 | 38.45363 | -28.92918 | 35001 ft | 466 kts | 242° |
| 2026-04-22 06:47 | 38.42312 | -29.00232 | 35001 ft | 466 kts | 242° |
| 2026-04-22 06:47 | 38.39290 | -29.07461 | 35001 ft | 466 kts | 242° |
| 2026-04-22 06:48 | 38.36251 | -29.14710 | 35001 ft | 466 kts | 242° |
| 2026-04-22 06:48 | 38.33203 | -29.21967 | 35001 ft | 466 kts | 242° |
| 2026-04-22 06:49 | 38.30141 | -29.29238 | 35001 ft | 466 kts | 242° |
| 2026-04-22 06:49 | 38.27097 | -29.36451 | 35001 ft | 466 kts | 242° |
| 2026-04-22 06:50 | 38.24041 | -29.43676 | 35001 ft | 466 kts | 242° |
| 2026-04-22 06:50 | 38.20972 | -29.50914 | 35001 ft | 466 kts | 242° |
| 2026-04-22 06:51 | 38.17898 | -29.58149 | 35001 ft | 466 kts | 242° |
| 2026-04-22 06:51 | 38.14824 | -29.65367 | 35001 ft | 466 kts | 241° |
| 2026-04-22 06:52 | 38.11762 | -29.72541 | 35001 ft | 466 kts | 241° |
| 2026-04-22 06:52 | 38.08669 | -29.79771 | 35001 ft | 466 kts | 241° |
| 2026-04-22 06:53 | 38.05580 | -29.86972 | 35001 ft | 466 kts | 241° |
| 2026-04-22 06:53 | 38.02598 | -29.94221 | 34997 ft | 465 kts | 248° |
| 2026-04-22 06:54 | 38.01007 | -30.02135 | 35000 ft | 465 kts | 265° |
| 2026-04-22 06:54 | 38.01421 | -30.10252 | 35007 ft | 466 kts | 279° |
| 2026-04-22 06:55 | 38.02583 | -30.18285 | 35000 ft | 466 kts | 281° |
| 2026-04-22 06:55 | 38.03759 | -30.26341 | 35000 ft | 466 kts | 280° |
| 2026-04-22 06:56 | 38.03949 | -30.27665 | 35000 ft | 466 kts | 280° |